createdAt,value
2023-03-29T00:02:07.729Z,70.86
2023-03-29T00:04:35.232Z,69.42
2023-03-29T00:07:04.417Z,69.40
2023-03-29T00:09:33.601Z,71.72
2023-03-29T00:12:01.710Z,70.23
2023-03-29T00:14:30.687Z,70.11
2023-03-29T00:16:58.353Z,70.07
2023-03-29T00:19:25.626Z,70.67
2023-03-29T00:21:52.429Z,71.38
2023-03-29T00:24:21.440Z,70.11
2023-03-29T00:26:48.604Z,70.68
2023-03-29T00:29:16.900Z,69.47
2023-03-29T00:31:49.439Z,71.45
2023-03-29T00:34:17.670Z,71.31
2023-03-29T00:36:44.103Z,71.10
2023-03-29T00:39:10.533Z,72.14
2023-03-29T00:41:37.178Z,72.45
2023-03-29T00:44:05.003Z,72.41
2023-03-29T00:46:36.862Z,74.86
2023-03-29T00:49:13.975Z,68.71
2023-03-29T00:51:41.885Z,71.11
2023-03-29T00:54:14.653Z,70.33
2023-03-29T00:56:44.114Z,71.22
2023-03-29T00:59:15.820Z,72.31
2023-03-29T01:01:55.120Z,72.05
2023-03-29T01:04:31.358Z,72.15
2023-03-29T01:07:30.997Z,72.98
2023-03-29T01:10:22.567Z,72.61
2023-03-29T01:12:54.896Z,70.80
2023-03-29T01:15:28.801Z,73.16
2023-03-29T01:17:58.419Z,73.03
2023-03-29T01:20:30.866Z,72.26
2023-03-29T01:23:27.888Z,72.44
2023-03-29T01:26:06.637Z,74.35
2023-03-29T01:28:47.165Z,72.34
2023-03-29T01:31:36.598Z,73.80
2023-03-29T01:34:12.975Z,74.64
2023-03-29T01:36:49.351Z,72.36
2023-03-29T01:39:17.096Z,73.23
2023-03-29T01:41:59.306Z,73.47
2023-03-29T01:44:34.829Z,74.17
2023-03-29T01:47:13.111Z,73.99
2023-03-29T01:49:54.296Z,74.05
2023-03-29T01:52:29.324Z,73.38
2023-03-29T01:55:02.899Z,72.73
2023-03-29T01:57:33.661Z,74.35
2023-03-29T02:00:11.207Z,73.98
2023-03-29T02:02:41.727Z,73.54
2023-03-29T02:05:10.548Z,73.43
2023-03-29T02:07:38.968Z,73.71
2023-03-29T02:10:07.798Z,74.37
2023-03-29T02:12:34.325Z,73.74
2023-03-29T02:15:07.319Z,75.12
2023-03-29T02:17:36.107Z,73.68
2023-03-29T02:20:38.992Z,74.70
2023-03-29T02:23:33.334Z,74.69
2023-03-29T02:26:04.056Z,74.37
2023-03-29T02:28:31.726Z,74.83
2023-03-29T02:31:20.309Z,75.00
2023-03-29T02:34:10.151Z,74.33
2023-03-29T02:36:42.308Z,75.18
2023-03-29T02:39:13.908Z,74.38
2023-03-29T02:41:43.514Z,74.23
2023-03-29T02:44:17.052Z,74.19
2023-03-29T02:46:44.049Z,74.19
2023-03-29T02:49:13.737Z,74.16
2023-03-29T02:51:40.265Z,74.22
2023-03-29T02:54:16.061Z,75.24
2023-03-29T02:56:45.195Z,74.75
2023-03-29T02:59:14.421Z,74.98
2023-03-29T03:01:45.267Z,74.95
2023-03-29T03:04:13.532Z,75.06
2023-03-29T03:06:43.995Z,74.57
2023-03-29T03:09:11.964Z,74.61
2023-03-29T03:11:38.442Z,74.51
2023-03-29T03:14:05.796Z,74.72
2023-03-29T03:16:34.675Z,75.01
2023-03-29T03:19:03.554Z,75.14
2023-03-29T03:21:33.136Z,74.67
2023-03-29T03:24:00.842Z,75.06
2023-03-29T03:26:30.162Z,74.84
2023-03-29T03:28:59.122Z,75.79
2023-03-29T03:31:25.586Z,75.68
2023-03-29T03:33:53.532Z,75.06
2023-03-29T03:36:26.181Z,75.79
2023-03-29T03:38:53.260Z,75.44
2023-03-29T03:41:19.910Z,76.43
2023-03-29T03:43:48.999Z,76.22
2023-03-29T03:46:17.093Z,76.49
2023-03-29T03:48:45.044Z,75.75
2023-03-29T03:51:11.831Z,76.36
2023-03-29T03:53:38.425Z,76.71
2023-03-29T03:56:09.030Z,75.77
2023-03-29T04:01:05.407Z,76.58
2023-03-29T04:03:33.833Z,76.38
2023-03-29T04:06:02.151Z,77.35
2023-03-29T04:08:31.994Z,77.12
2023-03-29T04:10:59.620Z,77.60
2023-03-29T04:13:27.427Z,77.73
2023-03-29T04:15:59.398Z,76.78
2023-03-29T04:18:26.762Z,78.35
2023-03-29T04:20:53.199Z,76.97
2023-03-29T04:23:19.690Z,77.44
2023-03-29T04:25:46.568Z,77.37
2023-03-29T04:28:13.330Z,77.34
2023-03-29T04:30:40.864Z,77.54
2023-03-29T04:33:07.522Z,76.89
2023-03-29T04:35:34.386Z,76.32
2023-03-29T04:38:10.187Z,77.54
2023-03-29T04:40:37.260Z,77.51
2023-03-29T04:43:04.552Z,77.77
2023-03-29T15:33:28.159Z,61.01
2023-03-29T15:35:56.926Z,61.19
2023-03-29T15:38:33.182Z,61.48
2023-03-29T15:41:08.770Z,61.46
2023-03-29T15:43:35.336Z,61.45
2023-03-29T15:46:01.785Z,60.80
2023-03-29T15:48:29.858Z,60.96
2023-03-29T15:50:57.672Z,61.14
2023-03-29T15:53:25.684Z,60.26
2023-03-29T15:55:56.782Z,60.77
2023-03-29T15:58:27.427Z,60.27
2023-03-29T16:01:02.452Z,60.14
2023-03-29T16:03:29.006Z,60.07
2023-03-29T16:05:56.867Z,60.36
2023-03-29T16:08:24.492Z,60.22
2023-03-29T16:10:50.918Z,60.40
2023-03-29T16:13:18.495Z,60.56
2023-03-29T16:15:45.781Z,60.45
2023-03-29T16:18:12.204Z,60.71
2023-03-29T16:20:38.573Z,60.99
2023-03-29T16:23:09.572Z,62.05
2023-03-29T16:25:39.669Z,62.47
2023-03-29T16:28:07.892Z,63.02
2023-03-29T16:30:35.884Z,62.31
2023-03-29T16:33:06.201Z,62.87
2023-03-29T16:35:35.371Z,63.42
2023-03-29T16:38:01.922Z,62.85
2023-03-29T16:40:28.627Z,62.94
2023-03-29T16:42:55.234Z,62.79
2023-03-29T16:45:23.757Z,63.15
2023-03-29T16:47:50.406Z,63.08
2023-03-29T16:50:18.836Z,63.52
2023-03-29T16:52:47.828Z,63.45
2023-03-29T16:55:15.667Z,63.44
2023-03-29T16:57:42.577Z,63.72
2023-03-29T17:00:15.576Z,63.52
2023-03-29T17:02:44.108Z,63.61
2023-03-29T17:05:13.871Z,63.48
2023-03-29T17:07:40.611Z,63.31
2023-03-29T17:10:08.214Z,63.42
2023-03-29T17:12:35.317Z,63.39
2023-03-29T17:15:04.091Z,63.27
2023-03-29T17:17:30.625Z,63.44
2023-03-29T17:19:57.441Z,63.43
2023-03-29T17:22:26.410Z,63.82
2023-03-29T17:24:52.750Z,64.08
2023-03-29T17:27:19.380Z,64.30
2023-03-29T17:29:46.108Z,64.28
2023-03-29T17:32:12.453Z,64.63
2023-03-29T17:34:39.370Z,65.37
2023-03-29T17:37:05.774Z,65.75
2023-03-29T17:39:33.062Z,66.03
2023-03-29T17:41:59.597Z,66.51
2023-03-29T17:44:25.982Z,66.40
2023-03-29T17:46:52.346Z,66.72
2023-03-29T17:49:18.765Z,66.85
2023-03-29T17:51:46.157Z,67.23
2023-03-29T17:54:12.657Z,66.91
2023-03-29T17:56:39.090Z,65.80
2023-03-29T17:59:07.617Z,65.38
2023-03-29T18:01:34.539Z,65.24
2023-03-29T18:04:03.420Z,64.97
2023-03-29T18:06:32.605Z,65.14
2023-03-29T18:09:02.303Z,65.27
2023-03-29T18:11:31.131Z,65.42
2023-03-29T18:14:01.075Z,65.44
2023-03-29T18:16:27.916Z,65.52
2023-03-29T18:18:54.414Z,65.68
2023-03-29T18:21:20.935Z,65.44
2023-03-29T18:23:48.820Z,65.68
2023-03-29T18:26:16.607Z,65.88
2023-03-29T18:28:48.244Z,66.07
2023-03-29T18:31:15.366Z,66.08
2023-03-29T18:33:43.324Z,66.38
2023-03-29T18:36:13.303Z,66.27
2023-03-29T18:38:43.065Z,66.49
2023-03-29T18:41:15.344Z,66.61
2023-03-29T18:43:43.215Z,66.53
2023-03-29T18:46:09.876Z,66.53
2023-03-29T18:48:38.923Z,66.31
2023-03-29T18:51:07.440Z,66.14
2023-03-29T18:53:36.015Z,66.04
2023-03-29T18:56:04.340Z,66.02
2023-03-29T18:58:33.079Z,66.21
2023-03-29T19:01:04.266Z,66.28
2023-03-29T19:03:34.742Z,66.38
2023-03-29T19:06:02.628Z,66.30
2023-03-29T19:08:33.704Z,66.34
2023-03-29T19:11:01.778Z,66.24
2023-03-29T19:13:28.140Z,66.59
2023-03-29T19:15:54.552Z,66.85
2023-03-29T19:18:21.022Z,66.75
2023-03-29T19:20:53.795Z,66.87
2023-03-29T19:23:25.029Z,67.19
2023-03-29T19:26:02.610Z,67.33
2023-03-29T19:28:29.751Z,67.46
2023-03-29T19:31:00.325Z,67.43
2023-03-29T19:33:26.861Z,67.94
2023-03-29T19:35:56.945Z,68.28
2023-03-29T19:38:25.756Z,68.48
2023-03-29T19:40:53.089Z,68.61
2023-03-29T19:43:20.644Z,68.96
2023-03-29T19:45:49.447Z,68.99
2023-03-29T19:48:22.316Z,69.44
2023-03-29T19:50:51.404Z,69.67
2023-03-29T19:53:19.316Z,69.66
2023-03-29T19:55:46.258Z,69.54
2023-03-29T19:58:13.209Z,69.83
2023-03-29T20:00:40.564Z,69.84
2023-03-29T20:03:09.732Z,69.75
2023-03-29T20:05:38.756Z,70.23
2023-03-29T20:08:10.913Z,70.65
2023-03-29T20:10:37.257Z,70.50
2023-03-29T20:13:06.513Z,71.06
2023-03-29T20:15:33.038Z,71.31
2023-03-29T20:18:00.197Z,71.59
2023-03-29T20:20:27.279Z,71.80
2023-03-29T20:22:58.642Z,71.99
2023-03-29T20:25:27.359Z,72.14
2023-03-29T20:27:54.149Z,72.55
2023-03-29T20:30:20.833Z,72.93
2023-03-29T20:32:47.429Z,73.01
2023-03-29T20:35:15.283Z,73.21
2023-03-29T20:37:44.031Z,73.27
2023-03-29T20:40:11.292Z,73.66
2023-03-29T20:42:38.269Z,73.54
2023-03-29T20:45:08.022Z,73.44
2023-03-29T20:47:42.123Z,73.30
2023-03-29T20:50:10.417Z,73.19
2023-03-29T20:52:38.245Z,73.28
2023-03-29T20:55:06.374Z,73.12
2023-03-29T20:57:32.847Z,73.22
2023-03-29T20:59:59.449Z,73.01
2023-03-29T21:02:26.705Z,73.20
2023-03-29T21:04:54.158Z,73.19
2023-03-29T21:07:23.812Z,73.14
2023-03-29T21:09:50.991Z,73.02
2023-03-29T21:12:17.442Z,73.13
2023-03-29T21:14:44.524Z,73.18
2023-03-29T21:17:10.874Z,73.13
2023-03-29T21:19:39.791Z,72.88
2023-03-29T21:22:06.603Z,73.10
2023-03-29T21:24:33.883Z,72.98
2023-03-29T21:27:02.919Z,73.10
2023-03-29T21:29:29.377Z,72.82
2023-03-29T21:31:55.935Z,72.75
2023-03-29T21:34:22.775Z,73.17
2023-03-29T21:36:49.445Z,73.02
2023-03-29T21:39:16.900Z,73.31
2023-03-29T21:41:43.600Z,73.32
2023-03-29T21:44:09.950Z,73.61
2023-03-29T21:46:36.319Z,73.72
2023-03-29T21:49:03.136Z,73.82
2023-03-29T21:51:29.487Z,74.19
2023-03-29T21:53:57.473Z,73.78
2023-03-29T21:56:23.861Z,74.25
2023-03-29T21:58:50.610Z,74.49
2023-03-29T22:01:18.050Z,74.57
2023-03-29T22:03:44.899Z,74.62
2023-03-29T22:06:13.657Z,74.60
2023-03-29T22:08:40.277Z,74.59
2023-03-29T22:11:13.070Z,74.99
2023-03-29T22:13:40.986Z,74.82
2023-03-29T22:16:11.301Z,74.89
2023-03-29T22:18:44.180Z,75.04
2023-03-29T22:21:17.386Z,75.29
2023-03-29T22:23:49.647Z,75.29
2023-03-29T22:26:18.806Z,75.23
2023-03-29T22:28:47.021Z,75.38
2023-03-29T22:31:15.798Z,75.26
2023-03-29T22:33:43.980Z,75.55
2023-03-29T22:36:19.257Z,75.65
2023-03-29T22:38:46.344Z,75.41
2023-03-29T22:41:13.732Z,75.56
2023-03-29T22:43:40.169Z,75.52
2023-03-29T22:46:08.767Z,75.46
2023-03-29T22:48:35.822Z,75.40
2023-03-29T22:51:02.439Z,75.61
2023-03-29T22:53:29.294Z,75.71
2023-03-29T22:55:57.904Z,75.42
2023-03-29T22:58:24.707Z,75.83
2023-03-29T23:00:51.644Z,75.94
2023-03-29T23:03:19.347Z,75.36
2023-03-29T23:05:53.065Z,75.97
2023-03-29T23:08:19.593Z,75.65
2023-03-29T23:10:47.168Z,76.39
2023-03-29T23:13:17.800Z,75.69
2023-03-29T23:15:47.999Z,76.26
2023-03-29T23:18:15.757Z,76.10
2023-03-29T23:20:44.258Z,75.99
2023-03-29T23:23:10.807Z,76.02
2023-03-29T23:25:38.383Z,75.99
2023-03-29T23:28:05.257Z,75.45
2023-03-29T23:30:35.779Z,75.36
2023-03-29T23:33:02.479Z,75.04
2023-03-29T23:35:28.952Z,75.24
2023-03-29T23:37:55.345Z,75.30
2023-03-29T23:40:22.901Z,75.11
2023-03-29T23:42:59.170Z,75.09
2023-03-29T23:45:27.498Z,75.25
2023-03-29T23:47:57.032Z,75.17
2023-03-29T23:50:23.641Z,75.21
2023-03-29T23:52:51.352Z,75.11
2023-03-29T23:55:17.917Z,75.39
2023-03-29T23:57:47.403Z,75.43
